Time;durP1;ratioP1;P1;durP2;ratioP2;P2;SDS_P1;SDS_P2;PMS_P1;PMS_P2;Temp;Humidity;BMP_temperature;BMP_pressure;BME280_temperature;BME280_humidity;BME280_pressure;Samples;Min_cycle;Max_cycle;Signal;HPM_P1;HPM_P2
2023/01/31 00:01:45;;;;;;;2.17;1.40;;;8.60;64.40;8.20;96957.00;;;;5034628;28;20277;-87
2023/01/31 00:04:13;;;;;;;2.27;1.77;;;8.50;63.60;8.20;96968.00;;;;5034470;28;20267;-88
2023/01/31 00:06:49;;;;;;;2.10;1.90;;;8.50;63.70;8.30;96954.00;;;;5031608;28;20202;-88
2023/01/31 00:09:18;;;;;;;1.43;1.33;;;8.60;63.80;8.30;96952.00;;;;5030417;28;20656;-89
2023/01/31 00:11:46;;;;;;;1.60;1.33;;;8.50;63.70;8.20;96954.00;;;;5015476;28;20225;-89
2023/01/31 00:14:20;;;;;;;1.30;1.20;;;8.50;63.70;8.20;96962.00;;;;5014685;28;20805;-88
2023/01/31 00:16:48;;;;;;;2.80;1.97;;;8.50;63.60;8.20;96977.00;;;;5032785;28;20280;-87
2023/01/31 00:19:16;;;;;;;1.80;1.53;;;8.50;63.60;8.20;96987.00;;;;5015237;28;20304;-86
2023/01/31 00:21:45;;;;;;;2.17;1.53;;;8.50;63.70;8.20;96979.00;;;;5013910;28;20682;-88
2023/01/31 00:24:15;;;;;;;1.73;1.63;;;8.50;63.70;8.20;96966.00;;;;5015995;28;20552;-88
2023/01/31 00:26:43;;;;;;;2.73;2.00;;;8.50;63.60;8.20;96974.00;;;;5018409;28;20546;-88
2023/01/31 00:29:11;;;;;;;1.60;1.40;;;8.50;63.70;8.20;96975.00;;;;5021764;28;20221;-88
2023/01/31 00:31:40;;;;;;;2.33;1.50;;;8.50;63.80;8.30;96971.00;;;;5018466;28;20697;-89
2023/01/31 00:34:08;;;;;;;2.17;1.67;;;8.50;63.70;8.30;96984.00;;;;5036324;28;20381;-88
2023/01/31 00:36:36;;;;;;;2.57;1.30;;;8.60;63.80;8.30;96979.00;;;;5027366;28;20198;-88
2023/01/31 00:39:06;;;;;;;2.97;1.60;;;8.50;63.70;8.30;96969.00;;;;5025963;28;20227;-89
2023/01/31 00:41:35;;;;;;;1.53;1.40;;;8.50;63.60;8.30;96969.00;;;;5034310;28;20197;-88
2023/01/31 00:44:03;;;;;;;2.20;1.50;;;8.50;63.70;8.30;96976.00;;;;5032968;28;20193;-88
2023/01/31 00:46:31;;;;;;;2.13;1.57;;;8.50;63.70;8.30;96969.00;;;;5015540;28;20198;-88
2023/01/31 00:49:00;;;;;;;2.43;1.50;;;8.50;63.70;8.30;96966.00;;;;5027060;28;20201;-88
2023/01/31 00:51:28;;;;;;;2.07;1.40;;;8.60;63.80;8.30;96965.00;;;;5033292;28;20204;-88
2023/01/31 00:53:55;;;;;;;2.10;1.77;;;8.60;63.90;8.40;96964.00;;;;5034151;28;20270;-88
2023/01/31 00:56:24;;;;;;;2.97;1.77;;;8.60;63.90;8.40;96967.00;;;;5035171;28;20284;-87
2023/01/31 00:58:54;;;;;;;2.03;1.90;;;8.60;63.90;8.40;96976.00;;;;5010578;28;20197;-88
2023/01/31 01:01:25;;;;;;;2.83;1.50;;;8.60;63.80;8.40;96977.00;;;;5033712;28;20208;-87
2023/01/31 01:03:53;;;;;;;1.93;1.80;;;8.60;63.80;8.40;96973.00;;;;5031757;28;20201;-87
2023/01/31 01:06:23;;;;;;;2.37;1.50;;;8.50;63.70;8.40;96966.00;;;;5033470;28;20194;-87
2023/01/31 01:08:51;;;;;;;2.53;1.67;;;8.60;63.80;8.40;96967.00;;;;5033384;28;20200;-88
2023/01/31 01:11:22;;;;;;;1.73;1.50;;;8.70;63.90;8.40;96973.00;;;;5032765;28;20208;-88
2023/01/31 01:13:52;;;;;;;2.57;1.57;;;8.60;63.70;8.40;96975.00;;;;5028437;28;20213;-88
2023/01/31 01:16:27;;;;;;;3.00;1.70;;;8.60;63.60;8.40;96979.00;;;;5038106;28;20248;-88
2023/01/31 01:18:54;;;;;;;2.20;1.60;;;8.60;63.60;8.40;96978.00;;;;5006481;28;20196;-88
2023/01/31 01:21:26;;;;;;;1.80;1.70;;;8.60;63.50;8.40;96968.00;;;;5034161;28;20257;-88
2023/01/31 01:23:56;;;;;;;2.67;1.50;;;8.60;63.50;8.40;96976.00;;;;5050012;28;20280;-87
2023/01/31 01:26:26;;;;;;;1.60;1.50;;;8.60;63.60;8.40;96971.00;;;;5038673;28;20224;-88
2023/01/31 01:28:55;;;;;;;1.40;1.30;;;8.60;63.60;8.40;96976.00;;;;5038902;28;20575;-88
2023/01/31 01:31:28;;;;;;;3.53;1.67;;;8.60;63.70;8.40;96972.00;;;;5035044;28;20201;-88
2023/01/31 01:33:58;;;;;;;2.00;1.60;;;8.70;63.80;8.40;96970.00;;;;5027610;28;20312;-87
2023/01/31 01:36:29;;;;;;;2.33;1.77;;;8.70;63.70;8.40;96971.00;;;;5038207;28;20613;-88
2023/01/31 01:38:58;;;;;;;2.20;1.67;;;8.60;63.50;8.40;96977.00;;;;5020380;28;20204;-88
2023/01/31 01:41:25;;;;;;;2.10;1.23;;;8.60;63.50;8.40;96987.00;;;;5029027;28;20316;-87
2023/01/31 01:43:55;;;;;;;2.27;1.50;;;8.60;63.50;8.30;96988.00;;;;5033426;28;20231;-88
2023/01/31 01:46:29;;;;;;;1.90;1.60;;;8.60;63.50;8.40;96981.00;;;;5053182;28;20241;-88
2023/01/31 01:49:04;;;;;;;3.63;1.80;;;8.60;64.30;8.30;96978.00;;;;5030001;28;20249;-88
2023/01/31 01:51:34;;;;;;;1.90;1.70;;;8.60;63.50;8.30;96974.00;;;;5057511;28;20192;-88
2023/01/31 01:54:13;;;;;;;2.73;1.50;;;8.60;63.30;8.30;96983.00;;;;5025255;28;20284;-89
2023/01/31 01:56:45;;;;;;;1.40;1.30;;;8.60;63.40;8.30;96996.00;;;;4996857;28;20198;-88
2023/01/31 01:59:19;;;;;;;2.20;1.40;;;8.60;63.40;8.30;96991.00;;;;5033766;28;20740;-88
2023/01/31 02:01:49;;;;;;;2.87;1.37;;;8.60;63.40;8.20;96993.00;;;;5031908;28;20288;-88
2023/01/31 02:04:22;;;;;;;1.63;1.40;;;8.50;63.30;8.20;96981.00;;;;5039308;28;20315;-88
2023/01/31 02:06:52;;;;;;;1.40;1.30;;;8.50;63.40;8.20;96986.00;;;;5031777;28;20221;-88
2023/01/31 02:09:28;;;;;;;4.77;1.90;;;8.50;63.40;8.20;96999.00;;;;5031650;28;20296;-88
2023/01/31 02:11:56;;;;;;;3.00;1.63;;;8.50;63.40;8.20;97001.00;;;;5022985;28;20417;-87
2023/01/31 02:14:25;;;;;;;1.90;1.60;;;8.50;63.40;8.20;96998.00;;;;4995500;28;20193;-88
2023/01/31 02:16:52;;;;;;;1.83;1.60;;;8.50;63.40;8.20;97001.00;;;;5012324;28;20583;-88
2023/01/31 02:19:33;;;;;;;1.63;1.30;;;8.50;63.40;8.20;97003.00;;;;5029879;28;20900;-89
2023/01/31 02:22:29;;;;;;;3.63;1.30;;;8.40;63.40;8.20;97004.00;;;;5008858;28;20773;-88
2023/01/31 02:25:42;;;;;;;2.10;1.40;;;8.50;63.50;8.20;97010.00;;;;5022484;28;20666;-89
2023/01/31 02:28:57;;;;;;;1.93;1.50;;;8.60;63.60;8.20;97017.00;;;;5028018;28;20289;-88
2023/01/31 02:32:14;;;;;;;2.10;1.37;;;8.50;63.50;8.10;97016.00;;;;5032181;28;20288;-88
2023/01/31 02:34:54;;;;;;;1.53;1.17;;;8.50;63.50;8.10;96999.00;;;;5029440;28;20572;-87
2023/01/31 02:37:33;;;;;;;1.93;1.40;;;8.50;63.50;8.10;96998.00;;;;5032280;28;20205;-88
2023/01/31 02:40:17;;;;;;;3.27;1.83;;;8.40;63.40;8.10;96989.00;;;;5014468;28;20296;-88
2023/01/31 02:42:57;;;;;;;2.13;1.33;;;8.40;63.40;8.10;96998.00;;;;5028879;28;20251;-88
2023/01/31 02:45:36;;;;;;;3.00;1.30;;;8.50;63.50;8.10;97009.00;;;;5006741;28;20189;-89
2023/01/31 02:48:17;;;;;;;2.10;1.30;;;8.40;63.40;8.10;97009.00;;;;5025660;28;20610;-88
2023/01/31 02:50:58;;;;;;;1.30;1.20;;;8.40;63.40;8.10;97005.00;;;;5034501;28;20253;-88
2023/01/31 02:53:34;;;;;;;2.70;1.10;;;8.40;63.30;8.10;97011.00;;;;5035307;28;20360;-88
2023/01/31 02:56:18;;;;;;;1.57;1.47;;;8.40;63.40;8.10;97017.00;;;;5021134;28;20250;-89
2023/01/31 02:58:55;;;;;;;4.23;1.63;;;8.40;63.40;8.10;97022.00;;;;5017443;28;20197;-88
2023/01/31 03:01:29;;;;;;;2.03;1.20;;;8.40;63.50;8.10;97022.00;;;;5033274;28;20205;-88
2023/01/31 03:03:59;;;;;;;1.80;1.30;;;8.40;63.50;8.10;97030.00;;;;5018540;28;20201;-88
2023/01/31 03:07:05;;;;;;;1.90;1.63;;;8.40;63.50;8.10;97027.00;;;;5034301;28;20201;-88
2023/01/31 03:09:59;;;;;;;3.17;1.33;;;8.40;63.40;8.10;97030.00;;;;5002432;28;20228;-87
2023/01/31 03:12:45;;;;;;;1.60;1.40;;;8.40;63.40;8.10;97022.00;;;;5027642;28;20717;-88
2023/01/31 03:18:28;;;;;;;5.10;1.50;;;8.40;63.50;8.10;97038.00;;;;5032245;28;20200;-88
2023/01/31 03:21:06;;;;;;;1.60;1.20;;;8.30;63.50;8.10;97027.00;;;;5030611;28;20214;-89
2023/01/31 03:23:38;;;;;;;2.90;1.43;;;8.40;63.60;8.10;97033.00;;;;5016648;28;20200;-88
2023/01/31 03:26:08;;;;;;;3.33;1.57;;;8.30;63.40;8.10;97036.00;;;;5031031;28;20261;-88
2023/01/31 03:28:41;;;;;;;1.60;1.50;;;8.40;63.40;8.10;97033.00;;;;5033871;28;20559;-86
2023/01/31 03:31:18;;;;;;;3.20;1.80;;;8.40;63.40;8.10;97038.00;;;;5025642;28;20668;-88
2023/01/31 03:33:51;;;;;;;1.70;1.30;;;8.40;63.40;8.00;97035.00;;;;5013128;28;20222;-88
2023/01/31 03:36:30;;;;;;;2.90;1.73;;;8.40;63.30;8.00;97043.00;;;;5023334;28;20288;-89
2023/01/31 03:39:22;;;;;;;1.90;1.37;;;8.40;63.30;8.00;97062.00;;;;5032094;28;20224;-89
2023/01/31 03:42:01;;;;;;;1.43;1.30;;;8.40;63.30;8.00;97055.00;;;;5034014;28;20233;-89
2023/01/31 03:44:42;;;;;;;2.30;1.43;;;8.40;63.30;8.00;97061.00;;;;5031646;28;20201;-88
2023/01/31 03:47:17;;;;;;;2.80;1.50;;;8.40;63.30;8.00;97058.00;;;;5016301;28;20197;-88
2023/01/31 03:49:48;;;;;;;1.63;1.23;;;8.30;63.30;8.00;97062.00;;;;5017249;28;20217;-88
2023/01/31 03:52:23;;;;;;;1.47;1.20;;;8.30;63.20;7.90;97067.00;;;;5016368;28;20190;-90
2023/01/31 03:55:01;;;;;;;2.60;1.73;;;8.30;63.20;7.90;97061.00;;;;5017575;28;20185;-89
2023/01/31 03:57:35;;;;;;;2.37;1.33;;;8.20;63.10;7.90;97054.00;;;;5025566;28;20197;-87
2023/01/31 04:00:09;;;;;;;1.93;1.30;;;8.20;63.10;7.80;97058.00;;;;5033970;28;20224;-91
2023/01/31 04:02:38;;;;;;;2.23;1.27;;;8.20;63.20;7.90;97054.00;;;;5011260;28;20659;-89
2023/01/31 04:05:10;;;;;;;2.40;1.30;;;8.20;64.00;7.90;97055.00;;;;4988309;28;20725;-88
2023/01/31 04:07:38;;;;;;;3.20;1.50;;;8.20;63.30;7.90;97071.00;;;;5000130;28;20197;-88
2023/01/31 04:10:15;;;;;;;3.47;1.43;;;8.20;63.30;7.90;97065.00;;;;5016186;28;20240;-88
2023/01/31 04:12:42;;;;;;;3.27;1.50;;;8.20;63.30;7.80;97084.00;;;;5032227;28;20224;-89
2023/01/31 04:15:12;;;;;;;2.87;1.50;;;8.20;63.00;7.90;97093.00;;;;5016145;28;20280;-88
2023/01/31 04:17:39;;;;;;;3.77;1.80;;;8.20;63.30;7.90;97105.00;;;;5032211;28;20665;-89
2023/01/31 04:20:09;;;;;;;2.93;1.83;;;8.20;63.40;7.90;97102.00;;;;5033266;28;20217;-88
2023/01/31 04:22:36;;;;;;;2.03;1.40;;;8.20;63.50;7.90;97104.00;;;;5039073;28;20736;-88
2023/01/31 04:25:05;;;;;;;1.60;1.37;;;8.20;63.40;7.90;97101.00;;;;5032690;28;20569;-89
2023/01/31 04:27:35;;;;;;;4.83;1.80;;;8.20;63.50;7.90;97096.00;;;;5033171;28;20209;-88
2023/01/31 04:30:03;;;;;;;3.23;1.60;;;8.20;63.40;7.90;97095.00;;;;5015863;28;20305;-88
2023/01/31 04:32:30;;;;;;;3.83;1.57;;;8.20;63.30;7.90;97102.00;;;;5033602;28;20285;-88
2023/01/31 04:34:57;;;;;;;2.67;1.63;;;8.20;63.30;7.90;97099.00;;;;5020345;28;20193;-88
2023/01/31 04:37:25;;;;;;;4.13;1.40;;;8.20;63.30;7.90;97118.00;;;;5040972;28;20196;-88
2023/01/31 04:39:54;;;;;;;2.70;1.20;;;8.20;63.30;7.90;97113.00;;;;5031025;28;20589;-88
2023/01/31 04:42:24;;;;;;;5.93;1.80;;;8.20;63.40;7.90;97122.00;;;;5033552;28;20255;-88
2023/01/31 04:44:52;;;;;;;1.97;1.27;;;8.20;63.30;7.90;97121.00;;;;5015127;28;20595;-88
2023/01/31 04:47:20;;;;;;;3.10;1.50;;;8.20;63.20;7.90;97120.00;;;;5016304;28;20194;-88
2023/01/31 04:49:47;;;;;;;3.70;1.27;;;8.20;63.20;7.90;97121.00;;;;5035809;28;20231;-88
2023/01/31 04:52:15;;;;;;;1.60;1.30;;;8.10;63.10;7.90;97135.00;;;;5031962;28;20239;-88
2023/01/31 04:54:43;;;;;;;3.20;1.77;;;8.10;63.10;7.90;97126.00;;;;5031281;28;20225;-88
2023/01/31 04:57:13;;;;;;;2.37;1.40;;;8.20;63.20;7.90;97126.00;;;;5025795;28;20197;-89
2023/01/31 04:59:40;;;;;;;1.33;1.13;;;8.20;63.10;7.90;97132.00;;;;5031072;28;20279;-88
2023/01/31 05:02:09;;;;;;;3.63;1.23;;;8.20;63.00;7.90;97134.00;;;;5030648;28;20276;-88
2023/01/31 05:04:37;;;;;;;4.50;1.33;;;8.20;63.00;7.90;97139.00;;;;5013675;28;20205;-88
2023/01/31 05:07:04;;;;;;;2.17;1.53;;;8.20;62.90;7.90;97150.00;;;;5014483;28;20199;-89
2023/01/31 05:09:31;;;;;;;1.50;1.40;;;8.20;63.00;7.90;97141.00;;;;5032610;28;20304;-87
2023/01/31 05:11:58;;;;;;;3.03;1.50;;;8.20;62.90;7.90;97142.00;;;;5014292;28;20983;-89
2023/01/31 05:14:26;;;;;;;3.13;1.57;;;8.20;62.90;7.90;97157.00;;;;5033734;28;20788;-88
2023/01/31 05:16:54;;;;;;;3.27;1.63;;;8.20;62.90;7.90;97151.00;;;;5015749;28;20285;-87
2023/01/31 05:19:23;;;;;;;3.03;1.50;;;8.20;62.90;7.90;97140.00;;;;5018957;28;20285;-88
2023/01/31 05:22:00;;;;;;;3.77;1.90;;;8.20;62.80;7.90;97138.00;;;;5042021;28;20274;-87
2023/01/31 05:24:30;;;;;;;1.77;1.67;;;8.20;62.90;7.90;97133.00;;;;5046027;28;20231;-87
2023/01/31 05:27:00;;;;;;;2.50;1.83;;;8.20;62.80;7.90;97134.00;;;;5044711;28;20199;-87
2023/01/31 05:29:29;;;;;;;2.73;1.50;;;8.20;62.80;7.90;97128.00;;;;5040425;28;20213;-88
2023/01/31 05:32:00;;;;;;;1.77;1.47;;;8.20;62.80;7.90;97128.00;;;;5032113;28;20204;-88
2023/01/31 05:34:32;;;;;;;4.67;2.20;;;8.20;62.90;7.90;97117.00;;;;5030406;28;20221;-88
2023/01/31 05:36:59;;;;;;;2.30;1.50;;;8.20;62.80;7.90;97126.00;;;;5033401;28;20292;-87
2023/01/31 05:39:27;;;;;;;3.97;1.50;;;8.20;62.80;7.90;97136.00;;;;5033110;28;20228;-88
2023/01/31 05:41:55;;;;;;;2.67;1.40;;;8.20;62.80;7.90;97140.00;;;;5014910;28;20204;-88
2023/01/31 05:44:23;;;;;;;2.73;1.50;;;8.20;62.90;7.90;97153.00;;;;5035247;28;20283;-88
2023/01/31 05:46:50;;;;;;;2.17;1.50;;;8.20;62.90;7.90;97150.00;;;;5031774;28;20871;-88
2023/01/31 05:49:17;;;;;;;3.67;2.07;;;8.20;62.90;7.90;97157.00;;;;5032395;28;20771;-89
2023/01/31 05:51:46;;;;;;;2.30;1.50;;;8.10;62.80;7.90;97151.00;;;;5027761;28;20201;-89
2023/01/31 05:54:14;;;;;;;2.80;1.53;;;8.20;62.90;7.90;97153.00;;;;5011511;28;20292;-89
2023/01/31 05:56:41;;;;;;;2.93;2.00;;;8.10;62.80;7.90;97149.00;;;;5031525;28;20297;-88
2023/01/31 05:59:09;;;;;;;1.97;1.60;;;8.10;62.70;7.80;97141.00;;;;5031290;28;20665;-89
2023/01/31 06:01:37;;;;;;;1.87;1.63;;;8.10;62.70;7.80;97139.00;;;;5029414;28;20766;-88
2023/01/31 06:04:05;;;;;;;2.13;1.80;;;8.10;62.70;7.80;97148.00;;;;5030645;28;20225;-88
2023/01/31 06:06:33;;;;;;;2.73;1.80;;;8.10;62.70;7.80;97140.00;;;;5037754;28;20207;-88
2023/01/31 06:09:02;;;;;;;4.23;2.33;;;8.10;62.70;7.70;97132.00;;;;5014003;28;20284;-88
2023/01/31 06:11:29;;;;;;;2.63;2.30;;;8.00;62.60;7.70;97130.00;;;;5017667;28;20197;-89
2023/01/31 06:13:57;;;;;;;2.77;2.07;;;8.00;62.70;7.70;97137.00;;;;5035417;28;20221;-88
2023/01/31 06:16:25;;;;;;;3.70;2.10;;;8.00;62.80;7.60;97123.00;;;;5031157;28;20197;-85
2023/01/31 06:18:54;;;;;;;4.77;2.00;;;8.00;63.50;7.60;97133.00;;;;5028878;28;20193;-86
2023/01/31 06:21:23;;;;;;;2.37;2.13;;;7.90;62.90;7.70;97140.00;;;;5029492;28;20293;-87
2023/01/31 06:23:51;;;;;;;2.73;1.90;;;7.90;62.90;7.70;97139.00;;;;5031014;28;20203;-87
2023/01/31 06:26:21;;;;;;;3.13;2.00;;;7.90;62.80;7.70;97152.00;;;;5031319;28;20193;-85
2023/01/31 06:28:49;;;;;;;2.83;2.07;;;7.90;62.90;7.80;97152.00;;;;5013484;28;20822;-85
2023/01/31 06:31:19;;;;;;;3.43;2.30;;;7.90;62.90;7.80;97155.00;;;;5008981;28;20204;-84
2023/01/31 06:33:51;;;;;;;3.50;2.40;;;7.90;62.90;7.70;97171.00;;;;5014380;28;20228;-85
2023/01/31 06:36:18;;;;;;;5.50;2.60;;;8.00;62.90;7.80;97163.00;;;;5029657;28;20263;-84
2023/01/31 06:38:50;;;;;;;3.27;2.30;;;8.00;62.90;7.80;97161.00;;;;5011312;28;20201;-86
2023/01/31 06:41:24;;;;;;;2.00;1.80;;;8.00;62.90;7.80;97171.00;;;;5014640;28;20674;-84
2023/01/31 06:43:51;;;;;;;4.63;2.50;;;8.00;62.90;7.80;97183.00;;;;5032232;28;20203;-83
2023/01/31 06:46:19;;;;;;;3.07;1.93;;;7.90;62.90;7.80;97190.00;;;;5030096;28;20284;-83
2023/01/31 06:48:47;;;;;;;2.93;2.17;;;8.00;63.00;7.80;97186.00;;;;5016003;28;20247;-84
2023/01/31 06:51:15;;;;;;;3.37;2.30;;;8.00;62.90;7.70;97186.00;;;;5009567;28;20205;-84
2023/01/31 06:53:43;;;;;;;2.47;1.93;;;8.00;62.90;7.80;97190.00;;;;5031750;28;20229;-85
2023/01/31 06:56:10;;;;;;;3.80;2.57;;;7.90;62.90;7.70;97185.00;;;;5040978;28;20193;-84
2023/01/31 06:58:40;;;;;;;3.97;2.60;;;8.00;63.00;7.70;97185.00;;;;5014580;28;20201;-84
2023/01/31 07:01:09;;;;;;;3.60;2.40;;;8.80;63.50;7.80;97195.00;;;;5016171;28;20259;-84
2023/01/31 07:03:37;;;;;;;4.33;2.50;;;7.90;62.90;7.70;97191.00;;;;5015263;28;20257;-84
2023/01/31 07:06:06;;;;;;;3.20;2.90;;;7.90;62.90;7.70;97181.00;;;;5018708;28;20197;-84
2023/01/31 07:08:37;;;;;;;5.63;3.30;;;7.90;62.80;7.70;97183.00;;;;5018095;28;20201;-84
2023/01/31 07:11:05;;;;;;;5.97;3.07;;;7.90;62.80;7.70;97183.00;;;;5033141;28;20300;-85
2023/01/31 07:13:33;;;;;;;7.30;3.03;;;7.90;62.90;7.70;97180.00;;;;5047733;28;20257;-83
2023/01/31 07:16:02;;;;;;;3.27;2.23;;;8.00;62.90;7.70;97184.00;;;;5044478;28;20225;-83
2023/01/31 07:18:30;;;;;;;3.57;2.17;;;7.90;62.90;7.80;97190.00;;;;5059864;28;20197;-84
2023/01/31 07:20:58;;;;;;;4.50;2.70;;;8.00;62.90;7.80;97184.00;;;;5067594;28;20205;-82
2023/01/31 07:23:25;;;;;;;3.63;2.40;;;8.00;63.00;7.80;97192.00;;;;5045900;28;21621;-85
2023/01/31 07:25:53;;;;;;;2.93;2.00;;;8.00;62.90;7.70;97198.00;;;;5034285;28;20196;-83
2023/01/31 07:28:21;;;;;;;3.17;1.87;;;8.10;63.00;7.80;97192.00;;;;5037496;28;20662;-84
2023/01/31 07:30:50;;;;;;;4.57;1.93;;;8.00;62.90;7.80;97199.00;;;;5031509;28;20639;-83
2023/01/31 07:33:19;;;;;;;4.00;2.00;;;8.00;62.90;7.80;97197.00;;;;5032595;28;20197;-85
2023/01/31 07:35:47;;;;;;;4.80;2.27;;;8.00;62.80;7.80;97194.00;;;;5025512;28;20383;-84
2023/01/31 07:38:14;;;;;;;1.93;1.77;;;8.00;62.90;7.80;97198.00;;;;5031895;28;20203;-84
2023/01/31 07:40:42;;;;;;;5.93;2.23;;;8.00;62.90;7.80;97205.00;;;;5029592;28;20703;-86
2023/01/31 07:43:09;;;;;;;3.00;2.00;;;8.10;63.00;7.90;97203.00;;;;5014003;28;20485;-85
2023/01/31 07:45:36;;;;;;;2.87;2.03;;;8.10;62.90;7.90;97202.00;;;;5028537;28;20232;-85
2023/01/31 07:48:05;;;;;;;2.93;2.10;;;8.10;62.90;7.90;97207.00;;;;5032387;28;20198;-85
2023/01/31 07:50:34;;;;;;;4.27;1.97;;;8.10;62.80;7.90;97204.00;;;;5029229;28;20225;-83
2023/01/31 07:53:01;;;;;;;3.73;2.00;;;8.10;62.80;7.90;97202.00;;;;5028894;28;20233;-85
2023/01/31 07:55:29;;;;;;;6.60;2.33;;;8.10;62.80;7.90;97193.00;;;;5029259;28;20710;-83
2023/01/31 07:57:56;;;;;;;5.10;2.13;;;8.10;62.90;7.90;97201.00;;;;5029617;28;20662;-84
2023/01/31 08:03:32;;;;;;;6.50;2.27;;;8.10;62.90;8.00;97215.00;;;;5032042;28;20336;-84
2023/01/31 08:06:02;;;;;;;3.40;2.17;;;8.20;62.90;8.00;97215.00;;;;5030444;28;20201;-84
2023/01/31 08:08:31;;;;;;;3.63;2.23;;;8.20;62.80;8.00;97219.00;;;;5019821;28;21382;-84
2023/01/31 08:11:00;;;;;;;5.17;2.10;;;8.20;62.80;8.10;97214.00;;;;5029562;28;20217;-84
2023/01/31 08:13:27;;;;;;;2.77;2.07;;;8.20;62.80;8.10;97213.00;;;;5013249;28;20677;-84
2023/01/31 08:15:55;;;;;;;5.57;2.23;;;8.20;62.80;8.10;97219.00;;;;5031017;28;21421;-84
2023/01/31 08:18:22;;;;;;;4.43;1.90;;;8.20;62.90;8.10;97217.00;;;;5030999;28;20656;-84
2023/01/31 08:20:49;;;;;;;3.57;2.17;;;8.30;62.80;8.10;97205.00;;;;5030398;28;20245;-85
2023/01/31 08:23:18;;;;;;;5.00;2.20;;;8.30;62.70;8.20;97223.00;;;;5030720;28;20676;-84
2023/01/31 08:25:45;;;;;;;3.83;2.03;;;8.30;62.60;8.20;97211.00;;;;5017719;28;20209;-84
2023/01/31 08:28:14;;;;;;;4.93;2.10;;;8.30;62.60;8.20;97212.00;;;;5033627;28;20193;-84
2023/01/31 08:30:43;;;;;;;3.03;1.97;;;8.30;62.70;8.30;97211.00;;;;5026554;28;20209;-84
2023/01/31 08:33:11;;;;;;;3.60;2.40;;;8.40;62.70;8.30;97213.00;;;;5027169;28;20810;-84
2023/01/31 08:35:39;;;;;;;9.03;2.30;;;8.40;62.60;8.40;97217.00;;;;5030634;28;20304;-85
2023/01/31 08:38:06;;;;;;;3.10;1.63;;;8.40;62.50;8.40;97211.00;;;;5025723;28;20288;-84
2023/01/31 08:40:35;;;;;;;3.43;2.13;;;8.50;62.60;8.40;97216.00;;;;5030572;28;20267;-84
2023/01/31 08:43:02;;;;;;;2.30;2.03;;;8.60;62.60;8.50;97224.00;;;;5026412;28;20281;-84
2023/01/31 08:45:31;;;;;;;2.13;1.93;;;8.40;62.40;8.50;97220.00;;;;5028171;28;20205;-84
2023/01/31 08:48:02;;;;;;;3.43;2.10;;;8.50;62.40;8.50;97220.00;;;;5013051;28;20196;-84
2023/01/31 08:50:32;;;;;;;2.40;2.03;;;8.60;62.40;8.50;97213.00;;;;5032307;28;20228;-84
2023/01/31 08:53:04;;;;;;;5.27;2.43;;;8.60;62.40;8.50;97215.00;;;;5033670;28;20201;-83
2023/01/31 08:55:34;;;;;;;2.10;1.90;;;8.60;62.30;8.60;97216.00;;;;5029438;28;20249;-85
2023/01/31 08:58:04;;;;;;;5.63;2.53;;;8.60;62.20;8.60;97224.00;;;;5014337;28;20197;-84
2023/01/31 09:00:32;;;;;;;3.20;2.20;;;8.70;62.20;8.60;97225.00;;;;5009554;28;20257;-84
2023/01/31 09:03:01;;;;;;;2.73;2.10;;;8.70;62.10;8.60;97218.00;;;;5000486;28;20229;-85
2023/01/31 09:05:30;;;;;;;4.57;2.20;;;8.70;62.10;8.60;97222.00;;;;5031679;28;20207;-84
2023/01/31 09:07:57;;;;;;;4.77;2.30;;;8.70;62.20;8.70;97230.00;;;;5035629;28;20678;-85
2023/01/31 09:10:24;;;;;;;2.73;1.90;;;8.80;62.30;8.70;97223.00;;;;5031377;28;20656;-85
2023/01/31 09:12:52;;;;;;;5.00;2.27;;;8.80;62.20;8.80;97221.00;;;;5032119;28;20202;-84
2023/01/31 09:15:21;;;;;;;4.23;2.30;;;8.80;62.30;8.90;97223.00;;;;5000319;28;20228;-84
2023/01/31 09:17:49;;;;;;;5.87;2.30;;;8.90;62.30;9.00;97239.00;;;;5026679;28;20622;-84
2023/01/31 09:20:16;;;;;;;5.47;2.50;;;9.00;62.10;9.00;97238.00;;;;5024916;28;20251;-84
2023/01/31 09:22:43;;;;;;;7.60;2.20;;;9.00;61.80;9.10;97231.00;;;;4995308;28;20288;-85
2023/01/31 09:25:12;;;;;;;2.97;2.17;;;9.10;61.60;9.10;97240.00;;;;4992902;28;20212;-84
2023/01/31 09:27:42;;;;;;;3.37;2.17;;;9.10;61.50;9.20;97235.00;;;;5013654;28;20666;-83
2023/01/31 09:30:12;;;;;;;4.40;2.03;;;9.20;61.50;9.20;97232.00;;;;5014278;28;20298;-84
2023/01/31 09:32:41;;;;;;;5.30;2.47;;;9.20;61.40;9.30;97229.00;;;;5033456;28;20209;-84
2023/01/31 09:35:10;;;;;;;3.07;2.07;;;9.30;61.40;9.30;97232.00;;;;5011535;28;20218;-84
2023/01/31 09:37:39;;;;;;;2.57;2.20;;;9.30;61.10;9.40;97235.00;;;;5035776;28;20307;-84
2023/01/31 09:40:07;;;;;;;4.20;2.40;;;9.40;61.10;9.50;97233.00;;;;5033504;28;20221;-85
2023/01/31 09:42:43;;;;;;;3.83;2.73;;;9.50;61.10;9.50;97243.00;;;;5028856;28;20225;-85
2023/01/31 09:45:15;;;;;;;4.37;2.40;;;9.50;60.80;9.60;97256.00;;;;5029555;28;20670;-85
2023/01/31 09:47:51;;;;;;;2.67;1.80;;;9.60;60.80;9.70;97244.00;;;;5029550;28;20281;-85
2023/01/31 09:50:24;;;;;;;5.97;2.10;;;9.60;60.60;9.80;97242.00;;;;5008627;28;20236;-85
2023/01/31 09:52:51;;;;;;;3.80;2.17;;;9.70;60.60;9.90;97234.00;;;;5035595;28;20217;-86
2023/01/31 09:55:31;;;;;;;5.70;2.37;;;9.80;60.50;9.90;97220.00;;;;5028874;28;20308;-85
2023/01/31 09:58:09;;;;;;;5.73;3.17;;;9.80;60.00;10.00;97223.00;;;;5026788;28;20201;-85
2023/01/31 10:00:47;;;;;;;6.80;2.47;;;9.90;60.00;10.10;97218.00;;;;5024584;28;20231;-85
2023/01/31 10:03:44;;;;;;;5.37;2.30;;;10.00;60.10;10.30;97212.00;;;;5025373;28;20207;-84
2023/01/31 10:06:21;;;;;;;8.23;2.10;;;10.10;59.80;10.40;97211.00;;;;5028530;28;20760;-85
2023/01/31 10:08:59;;;;;;;4.83;1.50;;;10.30;59.40;10.60;97220.00;;;;5025844;28;20193;-86
2023/01/31 10:11:35;;;;;;;3.00;1.10;;;10.40;59.20;10.60;97215.00;;;;5029299;28;20626;-85
2023/01/31 10:14:21;;;;;;;1.77;1.10;;;10.50;58.50;10.60;97230.00;;;;5024238;28;20208;-85
2023/01/31 10:17:03;;;;;;;1.63;1.00;;;10.60;58.10;10.70;97214.00;;;;4998449;28;20197;-86
2023/01/31 10:19:44;;;;;;;4.20;2.10;;;10.60;57.80;10.70;97212.00;;;;5030178;28;20359;-85
2023/01/31 10:22:21;;;;;;;15.23;1.70;;;10.70;58.00;10.70;97212.00;;;;5029261;28;20201;-85
2023/01/31 10:24:57;;;;;;;4.57;1.40;;;10.70;57.90;10.70;97207.00;;;;5016304;28;20201;-84
2023/01/31 10:27:41;;;;;;;3.47;1.80;;;10.70;57.90;10.70;97214.00;;;;5009074;28;20215;-86
2023/01/31 10:30:18;;;;;;;2.97;1.33;;;10.80;57.40;10.70;97207.00;;;;4997514;28;20209;-86
2023/01/31 10:32:53;;;;;;;3.13;1.53;;;10.70;57.40;10.70;97209.00;;;;5030942;28;20205;-86
2023/01/31 10:35:36;;;;;;;4.43;1.80;;;10.80;57.50;10.60;97208.00;;;;5027881;28;20236;-85
2023/01/31 10:38:16;;;;;;;2.10;1.50;;;10.70;57.00;10.60;97209.00;;;;5030901;28;20209;-85
2023/01/31 10:40:51;;;;;;;4.23;1.53;;;10.70;57.00;10.50;97208.00;;;;5015646;28;20771;-85
2023/01/31 10:43:25;;;;;;;2.20;1.70;;;10.70;57.10;10.50;97198.00;;;;5032190;28;20225;-85
2023/01/31 10:45:52;;;;;;;2.87;1.77;;;10.60;56.90;10.50;97200.00;;;;5028024;28;20269;-84
2023/01/31 10:48:25;;;;;;;3.67;1.70;;;10.60;56.60;10.40;97191.00;;;;5032726;28;20284;-86
2023/01/31 10:51:08;;;;;;;2.50;1.80;;;10.50;56.60;10.30;97199.00;;;;5031495;28;20653;-86
2023/01/31 10:54:11;;;;;;;7.47;1.87;;;10.50;56.60;10.30;97191.00;;;;5031573;28;20205;-86
2023/01/31 10:56:46;;;;;;;3.80;1.47;;;10.50;56.80;10.30;97177.00;;;;5029748;28;20229;-85
2023/01/31 10:59:25;;;;;;;2.80;1.50;;;10.50;57.00;10.30;97177.00;;;;5036568;28;20220;-87
2023/01/31 11:01:54;;;;;;;3.07;1.57;;;10.40;56.50;10.30;97180.00;;;;5030728;28;20208;-85
2023/01/31 11:04:28;;;;;;;3.17;1.47;;;10.40;56.50;10.20;97186.00;;;;5024992;28;20194;-86
2023/01/31 11:07:00;;;;;;;3.13;1.60;;;10.40;56.60;10.20;97167.00;;;;5030068;28;20284;-84
2023/01/31 11:09:32;;;;;;;3.13;1.67;;;10.30;56.60;10.20;97165.00;;;;5014220;28;20234;-85
2023/01/31 11:12:04;;;;;;;3.53;1.90;;;10.40;56.70;10.20;97167.00;;;;5031848;28;20797;-85
2023/01/31 11:14:31;;;;;;;3.50;1.73;;;10.30;56.70;10.20;97161.00;;;;5033512;28;20229;-86
2023/01/31 11:17:04;;;;;;;2.60;1.50;;;10.40;57.00;10.30;97167.00;;;;5019684;28;20776;-87
2023/01/31 11:19:38;;;;;;;2.47;1.47;;;10.30;56.90;10.30;97159.00;;;;5012985;28;20217;-86
2023/01/31 11:22:18;;;;;;;1.87;1.27;;;10.30;56.90;10.40;97153.00;;;;5030383;28;20207;-86
2023/01/31 11:24:49;;;;;;;2.93;1.50;;;10.40;57.10;10.40;97144.00;;;;5030409;28;20737;-85
2023/01/31 11:27:27;;;;;;;2.60;1.70;;;10.40;57.00;10.50;97138.00;;;;5017378;28;20654;-85
2023/01/31 11:29:57;;;;;;;7.00;1.60;;;10.50;56.70;10.50;97129.00;;;;5017099;28;20259;-86
2023/01/31 11:32:29;;;;;;;2.30;1.30;;;10.50;56.70;10.50;97128.00;;;;5026330;28;20198;-86
2023/01/31 11:34:59;;;;;;;5.47;1.57;;;10.60;56.70;10.50;97102.00;;;;5034039;28;20201;-86